Time;durP1;ratioP1;P1;durP2;ratioP2;P2;SDS_P1;SDS_P2;PMS_P1;PMS_P2;Temp;Humidity;BMP_temperature;BMP_pressure;BME280_temperature;BME280_humidity;BME280_pressure;Samples;Min_cycle;Max_cycle;Signal;HPM_P1;HPM_P2
2022/02/07 00:00:04;;;;;;;0.35;0.35;;;8.70;96.20;;;;;;5059491;28;20584;-47
2022/02/07 00:02:50;;;;;;;0.30;0.30;;;8.60;96.20;;;;;;5057447;28;20036;-49
2022/02/07 00:05:21;;;;;;;0.30;0.30;;;8.60;96.10;;;;;;5057885;28;20098;-48
2022/02/07 00:07:46;;;;;;;0.22;0.22;;;8.60;96.10;;;;;;5060629;28;20398;-48
2022/02/07 00:10:12;;;;;;;0.30;0.30;;;8.70;96.20;;;;;;5060506;28;20028;-48
2022/02/07 00:12:38;;;;;;;0.30;0.30;;;8.70;96.30;;;;;;5058084;28;20032;-48
2022/02/07 00:15:04;;;;;;;0.30;0.30;;;8.70;96.20;;;;;;5063313;28;20048;-48
2022/02/07 00:17:29;;;;;;;0.40;0.30;;;8.70;96.20;;;;;;5058997;28;20075;-48
2022/02/07 00:19:58;;;;;;;0.20;0.20;;;8.60;96.10;;;;;;5056157;28;20516;-48
2022/02/07 00:22:24;;;;;;;0.30;0.30;;;8.70;96.20;;;;;;5056805;28;20454;-48
2022/02/07 00:24:49;;;;;;;1.58;0.88;;;8.60;96.10;;;;;;5060964;28;20108;-48
2022/02/07 00:27:15;;;;;;;0.63;0.40;;;8.70;96.20;;;;;;5061263;28;20439;-48
2022/02/07 00:29:40;;;;;;;1.63;0.73;;;8.60;96.20;;;;;;5062542;28;20033;-48
2022/02/07 00:32:07;;;;;;;0.50;0.40;;;8.70;96.10;;;;;;5059236;28;20414;-48
2022/02/07 00:34:34;;;;;;;1.00;0.40;;;8.60;96.20;;;;;;5056671;28;20037;-49
2022/02/07 00:37:00;;;;;;;0.40;0.40;;;8.60;96.10;;;;;;5057400;28;20480;-49
2022/02/07 00:39:34;;;;;;;0.40;0.40;;;8.60;96.10;;;;;;5062537;28;20055;-48
2022/02/07 00:42:04;;;;;;;0.40;0.40;;;8.60;96.20;;;;;;5059289;28;20366;-48
2022/02/07 00:44:32;;;;;;;1.95;0.40;;;8.60;96.10;;;;;;5062047;28;20016;-48
2022/02/07 00:46:58;;;;;;;0.43;0.43;;;8.60;96.20;;;;;;5057962;28;20045;-48
2022/02/07 00:49:25;;;;;;;0.50;0.50;;;8.60;96.10;;;;;;5059730;28;20501;-48
2022/02/07 00:51:50;;;;;;;0.20;0.20;;;8.60;96.10;;;;;;5059024;28;20358;-48
2022/02/07 00:54:16;;;;;;;0.50;0.50;;;8.50;96.10;;;;;;5056086;28;20036;-48
2022/02/07 00:56:42;;;;;;;0.60;0.35;;;8.50;96.00;;;;;;5059687;28;20029;-48
2022/02/07 00:59:09;;;;;;;0.20;0.20;;;8.50;96.10;;;;;;5056738;28;20456;-48
2022/02/07 01:01:35;;;;;;;0.20;0.20;;;8.50;96.50;;;;;;5056282;28;20514;-48
2022/02/07 01:04:00;;;;;;;0.28;0.28;;;8.50;96.10;;;;;;5058273;28;20112;-48
2022/02/07 01:06:26;;;;;;;0.30;0.30;;;8.50;96.10;;;;;;5054667;28;20447;-48
2022/02/07 01:09:05;;;;;;;0.20;0.20;;;8.50;96.10;;;;;;5061662;28;20029;-48
2022/02/07 01:11:44;;;;;;;0.20;0.20;;;8.60;96.10;;;;;;5058748;28;20512;-48
2022/02/07 01:14:23;;;;;;;0.20;0.20;;;8.50;96.00;;;;;;5062187;28;20107;-48
2022/02/07 01:55:15;;;;;;;0.30;0.30;;;8.50;96.00;;;;;;5047771;28;20383;-48
2022/02/07 01:57:44;;;;;;;0.40;0.40;;;8.50;96.10;;;;;;5047966;28;20461;-48
2022/02/07 02:00:11;;;;;;;0.30;0.30;;;8.50;96.10;;;;;;5058732;28;20037;-48
2022/02/07 02:02:37;;;;;;;0.30;0.30;;;8.50;96.00;;;;;;5054364;28;20036;-49
2022/02/07 02:05:03;;;;;;;0.22;0.22;;;8.50;96.40;;;;;;5054661;28;20048;-48
2022/02/07 02:07:28;;;;;;;0.30;0.30;;;8.50;96.10;;;;;;5058107;28;20144;-49
2022/02/07 02:09:54;;;;;;;0.30;0.30;;;8.50;96.10;;;;;;5058697;28;20112;-48
2022/02/07 02:12:22;;;;;;;0.90;0.30;;;8.50;96.00;;;;;;5055337;28;20435;-48
2022/02/07 02:36:55;;;;;;;2.33;0.50;;;8.40;96.10;;;;;;5053129;28;20413;-48
2022/02/07 02:47:25;;;;;;;0.82;0.30;;;8.40;96.00;;;;;;5058470;28;20046;-49
2022/02/07 02:50:16;;;;;;;4.05;0.40;;;8.40;96.20;;;;;;5055607;28;20111;-48
2022/02/07 02:52:42;;;;;;;2.28;0.40;;;8.40;96.10;;;;;;5059446;28;20032;-48
2022/02/07 02:55:08;;;;;;;0.35;0.35;;;8.40;96.10;;;;;;5055496;28;20021;-48
2022/02/07 02:57:34;;;;;;;0.43;0.40;;;8.50;96.20;;;;;;5056975;28;20021;-49
2022/02/07 03:00:00;;;;;;;0.30;0.30;;;8.50;96.10;;;;;;5057856;28;20024;-48
2022/02/07 03:02:25;;;;;;;0.57;0.40;;;8.50;96.00;;;;;;5053810;28;20028;-48
2022/02/07 03:04:51;;;;;;;0.43;0.40;;;8.40;96.20;;;;;;5056982;28;20036;-48
2022/02/07 03:07:16;;;;;;;0.30;0.30;;;8.40;96.50;;;;;;5050654;28;20032;-48
2022/02/07 03:09:48;;;;;;;0.73;0.63;;;8.40;96.00;;;;;;5056671;28;20031;-48
2022/02/07 03:12:16;;;;;;;0.98;0.40;;;8.40;96.10;;;;;;5055951;28;20040;-48
2022/02/07 03:14:45;;;;;;;0.20;0.20;;;8.40;96.20;;;;;;5058968;28;20083;-48
2022/02/07 03:17:10;;;;;;;0.30;0.30;;;8.40;96.10;;;;;;5062228;28;20072;-49
2022/02/07 03:19:36;;;;;;;0.73;0.50;;;8.40;96.10;;;;;;5066096;28;20040;-48
2022/02/07 03:22:02;;;;;;;1.00;0.43;;;8.40;96.20;;;;;;5065835;28;20025;-48
2022/02/07 03:24:28;;;;;;;3.63;0.40;;;8.40;96.10;;;;;;5061395;28;20017;-48
2022/02/07 03:26:53;;;;;;;0.40;0.40;;;8.40;96.10;;;;;;5061245;28;20517;-49
2022/02/07 03:29:19;;;;;;;0.47;0.30;;;8.40;96.40;;;;;;5063059;28;20036;-48
2022/02/07 03:31:44;;;;;;;0.40;0.40;;;8.40;96.10;;;;;;5059307;28;20520;-49
2022/02/07 03:34:10;;;;;;;1.10;0.30;;;8.40;96.00;;;;;;5060738;28;20043;-48
2022/02/07 03:36:36;;;;;;;2.85;0.43;;;8.40;96.00;;;;;;5058734;28;20060;-48
2022/02/07 03:39:03;;;;;;;0.43;0.43;;;8.40;96.10;;;;;;5061665;28;20040;-49
2022/02/07 03:41:30;;;;;;;2.55;0.40;;;8.40;96.10;;;;;;5060503;28;20474;-48
2022/02/07 03:43:56;;;;;;;2.90;0.50;;;8.40;96.10;;;;;;5061188;28;20037;-48
2022/02/07 03:46:22;;;;;;;1.38;0.40;;;8.40;96.10;;;;;;5059402;28;20128;-48
2022/02/07 03:48:47;;;;;;;0.38;0.38;;;8.40;96.10;;;;;;5061795;28;20029;-48
2022/02/07 03:51:13;;;;;;;0.40;0.40;;;8.40;96.10;;;;;;5057229;28;20098;-48
2022/02/07 03:53:39;;;;;;;0.30;0.30;;;8.40;96.10;;;;;;5056874;28;20429;-48
2022/02/07 03:56:06;;;;;;;0.52;0.50;;;8.40;96.10;;;;;;5058655;28;20120;-49
2022/02/07 03:58:32;;;;;;;0.40;0.40;;;8.40;96.10;;;;;;5061173;28;20350;-48
2022/02/07 04:00:58;;;;;;;0.30;0.30;;;8.40;96.10;;;;;;5064424;28;20060;-48
2022/02/07 04:03:28;;;;;;;0.30;0.30;;;8.40;96.10;;;;;;5057230;28;20141;-48
2022/02/07 04:05:58;;;;;;;0.30;0.30;;;8.40;96.10;;;;;;5057528;28;20071;-49
2022/02/07 04:08:34;;;;;;;3.03;0.45;;;8.40;96.10;;;;;;5061315;28;20107;-48
2022/02/07 04:11:02;;;;;;;0.85;0.38;;;8.40;96.20;;;;;;5060809;28;20035;-48
2022/02/07 04:13:33;;;;;;;0.50;0.30;;;8.40;96.20;;;;;;5060006;28;20028;-48
2022/02/07 04:16:01;;;;;;;0.40;0.40;;;8.40;96.20;;;;;;5062079;28;20158;-48
2022/02/07 04:18:31;;;;;;;1.80;0.47;;;8.30;96.10;;;;;;5062303;28;20032;-48
2022/02/07 04:20:57;;;;;;;0.47;0.47;;;8.30;96.30;;;;;;5060500;28;20036;-48
2022/02/07 04:23:24;;;;;;;3.63;0.88;;;8.40;96.20;;;;;;5059825;28;20044;-48
2022/02/07 04:25:49;;;;;;;6.97;0.70;;;8.40;96.20;;;;;;5054470;28;20509;-48
2022/02/07 04:28:15;;;;;;;0.45;0.45;;;8.30;96.30;;;;;;5056658;28;20036;-48
2022/02/07 04:30:41;;;;;;;0.47;0.30;;;8.30;96.10;;;;;;5064506;28;20043;-48
2022/02/07 04:33:06;;;;;;;0.30;0.30;;;8.30;96.10;;;;;;5057550;28;20465;-48
2022/02/07 04:35:32;;;;;;;0.47;0.40;;;8.30;96.20;;;;;;5061518;28;20124;-48
2022/02/07 04:37:58;;;;;;;0.50;0.40;;;8.30;96.20;;;;;;5059031;28;20480;-48
2022/02/07 04:40:24;;;;;;;1.38;0.60;;;8.40;96.10;;;;;;5060509;28;20091;-48
2022/02/07 04:42:49;;;;;;;0.20;0.20;;;8.40;96.10;;;;;;5059765;28;20032;-48
2022/02/07 04:48:12;;;;;;;0.70;0.40;;;8.30;96.10;;;;;;5059866;28;20032;-48
2022/02/07 04:58:44;;;;;;;0.28;0.25;;;8.40;96.10;;;;;;5061618;28;20115;-48
2022/02/07 05:03:42;;;;;;;0.30;0.30;;;8.40;96.10;;;;;;5059200;28;20087;-48
2022/02/07 05:14:21;;;;;;;0.55;0.40;;;8.30;96.10;;;;;;5061493;28;20505;-48
2022/02/07 05:16:49;;;;;;;1.45;0.65;;;8.40;96.10;;;;;;5057391;28;20055;-48
2022/02/07 05:19:14;;;;;;;0.30;0.30;;;8.30;96.10;;;;;;5057920;28;20036;-48
2022/02/07 05:21:41;;;;;;;1.83;0.57;;;8.30;96.10;;;;;;5055476;28;20036;-48
2022/02/07 05:24:06;;;;;;;0.60;0.60;;;8.30;96.10;;;;;;5059604;28;20028;-48
2022/02/07 05:26:32;;;;;;;0.85;0.40;;;8.40;96.10;;;;;;5059160;28;20354;-49
2022/02/07 05:29:01;;;;;;;2.08;0.50;;;8.30;96.00;;;;;;5062837;28;20145;-48
2022/02/07 05:31:27;;;;;;;0.52;0.40;;;8.30;96.10;;;;;;5058118;28;20033;-48
2022/02/07 05:33:53;;;;;;;0.30;0.30;;;8.30;96.00;;;;;;5058034;28;20040;-48
2022/02/07 05:36:20;;;;;;;1.45;0.47;;;8.30;96.30;;;;;;5061540;28;20395;-48
2022/02/07 05:38:48;;;;;;;0.40;0.40;;;8.30;96.00;;;;;;5059126;28;20067;-49
2022/02/07 05:41:16;;;;;;;3.58;0.70;;;8.30;96.00;;;;;;5056101;28;20477;-48
2022/02/07 05:43:45;;;;;;;4.00;0.50;;;8.30;96.00;;;;;;5059168;28;20060;-48
2022/02/07 05:46:11;;;;;;;0.32;0.32;;;8.30;96.00;;;;;;5052230;28;20045;-48
2022/02/07 05:48:36;;;;;;;1.55;0.70;;;8.30;96.00;;;;;;5061308;28;20024;-48
2022/02/07 05:51:02;;;;;;;5.82;0.80;;;8.30;95.90;;;;;;5061861;28;20123;-48
2022/02/07 05:53:28;;;;;;;1.42;0.73;;;8.30;95.90;;;;;;5061845;28;20025;-49
2022/02/07 05:55:53;;;;;;;0.82;0.50;;;8.30;95.90;;;;;;5061698;28;20396;-48
2022/02/07 05:58:19;;;;;;;1.17;0.50;;;8.30;95.90;;;;;;5062649;28;20016;-49
2022/02/07 06:00:45;;;;;;;5.75;0.43;;;8.30;95.90;;;;;;5062155;28;20062;-48
2022/02/07 06:03:10;;;;;;;1.48;0.63;;;8.20;95.90;;;;;;5061217;28;20033;-48
2022/02/07 06:05:36;;;;;;;1.20;0.60;;;8.30;96.00;;;;;;5059147;28;20041;-49
2022/02/07 06:08:02;;;;;;;1.25;0.70;;;8.30;95.90;;;;;;5057603;28;20025;-48
2022/02/07 06:10:28;;;;;;;7.28;1.02;;;8.30;95.80;;;;;;5061003;28;20039;-48
2022/02/07 06:12:53;;;;;;;0.93;0.88;;;8.30;96.00;;;;;;5059442;28;20024;-48
2022/02/07 06:15:19;;;;;;;6.75;1.00;;;8.30;95.90;;;;;;5063618;28;20104;-49
2022/02/07 06:17:52;;;;;;;3.10;1.25;;;8.30;95.90;;;;;;5057495;28;20033;-48
2022/02/07 06:20:17;;;;;;;2.45;0.73;;;8.30;95.90;;;;;;5059323;28;20028;-48
2022/02/07 06:22:45;;;;;;;3.53;0.93;;;8.20;95.90;;;;;;5058770;28;20419;-49
2022/02/07 06:25:11;;;;;;;5.15;0.98;;;8.30;96.00;;;;;;5060497;28;20036;-49
2022/02/07 06:27:36;;;;;;;7.80;1.40;;;8.30;95.80;;;;;;5062650;28;20028;-49
2022/02/07 06:30:03;;;;;;;2.50;0.40;;;8.30;95.90;;;;;;5059935;28;20067;-48
2022/02/07 06:32:28;;;;;;;3.90;1.10;;;8.30;95.80;;;;;;5060845;28;20028;-48
2022/02/07 06:34:54;;;;;;;4.28;0.50;;;8.30;96.20;;;;;;5060904;28;20027;-48
2022/02/07 06:37:20;;;;;;;7.20;0.82;;;8.30;95.80;;;;;;5057015;28;20178;-48
2022/02/07 06:39:45;;;;;;;2.55;0.73;;;8.30;95.90;;;;;;5058328;28;20039;-48
2022/02/07 06:42:11;;;;;;;2.47;0.80;;;8.30;95.80;;;;;;5060559;28;20335;-48
2022/02/07 06:44:37;;;;;;;2.47;0.85;;;8.20;95.80;;;;;;5062490;28;20021;-49
2022/02/07 06:47:03;;;;;;;1.50;0.85;;;8.20;95.90;;;;;;5060655;28;20423;-49
2022/02/07 06:49:28;;;;;;;4.68;1.08;;;8.30;95.90;;;;;;5064700;28;20078;-49
2022/02/07 06:51:54;;;;;;;5.35;1.30;;;8.20;95.80;;;;;;5058225;28;20120;-49
2022/02/07 06:54:19;;;;;;;4.10;1.00;;;8.30;95.80;;;;;;5062340;28;20032;-48
2022/02/07 06:56:47;;;;;;;2.38;0.90;;;8.20;95.70;;;;;;5061107;28;20548;-48
2022/02/07 06:59:16;;;;;;;10.77;1.08;;;8.20;95.80;;;;;;5060325;28;20029;-48
2022/02/07 07:01:42;;;;;;;4.97;0.93;;;8.30;95.80;;;;;;5060094;28;20032;-48
2022/02/07 07:04:08;;;;;;;2.60;1.05;;;8.30;95.80;;;;;;5057276;28;20454;-49
2022/02/07 07:06:35;;;;;;;2.35;1.02;;;8.30;95.80;;;;;;5058151;28;20169;-48
2022/02/07 07:09:01;;;;;;;0.88;0.50;;;8.30;95.70;;;;;;5054252;28;20071;-48
2022/02/07 07:11:28;;;;;;;5.82;0.95;;;8.30;95.70;;;;;;5058358;28;20033;-48
2022/02/07 07:14:14;;;;;;;2.15;0.57;;;8.30;95.70;;;;;;5059387;28;20393;-48
2022/02/07 07:16:50;;;;;;;1.92;1.05;;;8.20;95.70;;;;;;5058855;28;20040;-48
2022/02/07 07:19:18;;;;;;;2.03;0.70;;;8.20;95.70;;;;;;5059638;28;20028;-48
2022/02/07 07:21:44;;;;;;;6.95;1.00;;;8.30;95.80;;;;;;5058172;28;20058;-48
2022/02/07 07:24:10;;;;;;;2.75;0.82;;;8.20;95.60;;;;;;5063269;28;20390;-48
2022/02/07 07:26:36;;;;;;;8.18;0.95;;;8.30;95.70;;;;;;5061602;28;20067;-48
2022/02/07 07:29:08;;;;;;;2.63;0.55;;;8.20;95.70;;;;;;5059275;28;20351;-48
2022/02/07 07:31:40;;;;;;;5.85;0.60;;;8.20;95.60;;;;;;5058755;28;20036;-48
2022/02/07 07:34:06;;;;;;;2.97;0.88;;;8.20;95.80;;;;;;5059160;28;20515;-48
2022/02/07 07:36:31;;;;;;;1.23;0.60;;;8.20;95.70;;;;;;5061597;28;20036;-49
2022/02/07 07:38:57;;;;;;;0.55;0.52;;;8.20;95.70;;;;;;5053161;28;20413;-48
2022/02/07 07:41:23;;;;;;;1.60;0.68;;;8.20;95.70;;;;;;5060198;28;20021;-48
2022/02/07 07:43:50;;;;;;;1.50;0.95;;;8.20;95.70;;;;;;5058662;28;20079;-48
2022/02/07 07:46:18;;;;;;;1.90;0.60;;;8.30;95.80;;;;;;5058869;28;20036;-48
2022/02/07 07:48:54;;;;;;;4.78;0.82;;;8.30;95.70;;;;;;5058769;28;20115;-48
2022/02/07 07:51:33;;;;;;;0.70;0.70;;;8.20;95.70;;;;;;5061361;28;20040;-48
2022/02/07 08:02:13;;;;;;;1.05;0.57;;;8.20;95.80;;;;;;5061764;28;20589;-48
2022/02/07 08:04:41;;;;;;;2.88;0.70;;;8.20;95.70;;;;;;5060574;28;20086;-49
2022/02/07 08:07:20;;;;;;;2.40;1.17;;;8.20;95.60;;;;;;5064507;28;20028;-48
2022/02/07 08:12:28;;;;;;;0.20;0.20;;;8.30;95.60;;;;;;5062488;28;20021;-48
2022/02/07 08:14:55;;;;;;;2.83;0.68;;;8.30;95.80;;;;;;5062077;28;20056;-48
2022/02/07 08:17:22;;;;;;;9.05;1.10;;;8.30;95.80;;;;;;5062746;28;20094;-48
2022/02/07 08:19:48;;;;;;;2.55;0.95;;;8.30;95.70;;;;;;5062523;28;20505;-48
2022/02/07 08:22:14;;;;;;;4.15;1.10;;;8.30;95.70;;;;;;5062262;28;20055;-48
2022/02/07 08:24:40;;;;;;;2.03;0.70;;;8.30;95.70;;;;;;5058578;28;20427;-48
2022/02/07 08:27:06;;;;;;;3.15;1.00;;;8.40;95.70;;;;;;5062187;28;20095;-48
2022/02/07 08:29:32;;;;;;;3.20;1.02;;;8.40;95.60;;;;;;5061706;28;20033;-48
2022/02/07 08:31:58;;;;;;;6.03;1.10;;;8.40;95.40;;;;;;5062178;28;20471;-49
2022/02/07 08:34:24;;;;;;;6.35;0.88;;;8.40;95.40;;;;;;5063891;28;20291;-48
2022/02/07 08:36:49;;;;;;;4.63;0.98;;;8.50;95.30;;;;;;5062381;28;20037;-49
2022/02/07 08:39:15;;;;;;;8.00;1.08;;;8.50;95.40;;;;;;5058101;28;20045;-48
2022/02/07 08:41:41;;;;;;;9.95;1.20;;;8.50;95.30;;;;;;5060457;28;20029;-48
2022/02/07 08:44:06;;;;;;;2.78;1.05;;;8.40;95.40;;;;;;5063064;28;20427;-48
2022/02/07 08:46:32;;;;;;;1.42;0.98;;;8.40;95.60;;;;;;5064118;28;20039;-48
2022/02/07 08:48:59;;;;;;;4.97;0.88;;;8.40;95.40;;;;;;5061564;28;20049;-48
2022/02/07 08:51:25;;;;;;;4.65;0.75;;;8.40;95.50;;;;;;5061184;28;20085;-48
2022/02/07 08:53:52;;;;;;;1.08;0.88;;;8.50;95.40;;;;;;5060971;28;20057;-48
2022/02/07 08:56:26;;;;;;;6.18;0.80;;;8.50;95.40;;;;;;5060160;28;20032;-48
2022/02/07 08:58:53;;;;;;;2.17;0.63;;;8.50;95.50;;;;;;5064303;28;20043;-48
2022/02/07 09:01:27;;;;;;;1.75;0.88;;;8.60;95.60;;;;;;5067690;28;20112;-48
2022/02/07 09:06:38;;;;;;;2.40;0.85;;;8.60;95.90;;;;;;5066946;28;20041;-48
2022/02/07 09:09:19;;;;;;;2.58;1.00;;;8.60;95.70;;;;;;5060090;28;20090;-48
2022/02/07 09:11:45;;;;;;;0.80;0.60;;;8.60;95.50;;;;;;5061941;28;20135;-48
2022/02/07 09:14:12;;;;;;;5.57;1.08;;;8.70;95.40;;;;;;5061967;28;20032;-48
2022/02/07 09:16:39;;;;;;;0.88;0.70;;;8.70;95.50;;;;;;5062418;28;20454;-48
2022/02/07 09:19:06;;;;;;;6.35;0.70;;;8.70;95.60;;;;;;5059319;28;20074;-48
2022/02/07 09:21:32;;;;;;;0.30;0.30;;;8.70;95.70;;;;;;5060484;28;20116;-48
2022/02/07 09:23:58;;;;;;;3.78;1.13;;;8.70;95.90;;;;;;5061292;28;20111;-48
2022/02/07 09:26:25;;;;;;;5.28;1.10;;;8.70;95.60;;;;;;5058967;28;20041;-48
2022/02/07 09:28:51;;;;;;;5.97;1.50;;;8.70;95.70;;;;;;5060916;28;20116;-48
2022/02/07 09:31:18;;;;;;;4.43;1.20;;;8.70;95.80;;;;;;5058912;28;20108;-48
2022/02/07 09:33:45;;;;;;;3.05;0.70;;;8.70;95.70;;;;;;5063970;28;20029;-48
2022/02/07 09:36:15;;;;;;;4.00;0.95;;;8.70;95.60;;;;;;5060774;28;20470;-48
2022/02/07 09:38:42;;;;;;;6.53;1.30;;;8.80;95.50;;;;;;5063137;28;20150;-48
2022/02/07 09:41:08;;;;;;;5.22;1.15;;;8.80;95.80;;;;;;5055037;28;20431;-48
2022/02/07 09:43:41;;;;;;;3.55;1.08;;;8.80;96.40;;;;;;5062052;28;20350;-48
2022/02/07 09:46:10;;;;;;;3.67;1.10;;;8.90;96.30;;;;;;5062218;28;20033;-48
2022/02/07 09:48:39;;;;;;;7.72;1.30;;;8.80;95.80;;;;;;5059993;28;20090;-48
2022/02/07 09:51:06;;;;;;;2.90;1.35;;;8.90;95.60;;;;;;5061506;28;20465;-48
2022/02/07 09:53:33;;;;;;;5.55;1.63;;;8.80;95.90;;;;;;5062033;28;20035;-49
2022/02/07 09:56:00;;;;;;;0.75;0.47;;;8.80;96.10;;;;;;5055559;28;20043;-48
2022/02/07 09:58:26;;;;;;;6.43;1.13;;;8.80;95.90;;;;;;5062434;28;20029;-48
2022/02/07 10:00:57;;;;;;;4.72;1.08;;;8.90;95.80;;;;;;5060377;28;20031;-48
2022/02/07 10:03:30;;;;;;;1.52;1.02;;;8.90;95.90;;;;;;5059933;28;20075;-48
2022/02/07 10:05:59;;;;;;;5.78;1.10;;;8.90;96.70;;;;;;5057431;28;20120;-48
2022/02/07 10:13:52;;;;;;;6.13;0.93;;;8.90;96.10;;;;;;5060643;28;20028;-48
2022/02/07 10:19:04;;;;;;;2.65;0.95;;;8.90;96.30;;;;;;5062026;28;20742;-48
2022/02/07 10:45:50;;;;;;;7.45;1.10;;;8.90;96.20;;;;;;5060280;28;20095;-48
2022/02/07 10:48:41;;;;;;;5.80;1.20;;;8.90;96.40;;;;;;5059297;28;20366;-48
2022/02/07 10:51:11;;;;;;;1.75;0.88;;;8.90;96.20;;;;;;5059840;28;20483;-48
2022/02/07 10:53:42;;;;;;;7.72;1.30;;;8.90;96.20;;;;;;5058423;28;20403;-48
2022/02/07 10:56:09;;;;;;;2.95;0.93;;;8.90;96.30;;;;;;5055191;28;20033;-48
2022/02/07 10:58:36;;;;;;;2.80;0.90;;;8.90;96.30;;;;;;5059530;28;20024;-48
2022/02/07 11:01:09;;;;;;;2.17;0.73;;;8.90;96.20;;;;;;5060919;28;20366;-48
2022/02/07 11:03:40;;;;;;;3.35;0.70;;;8.90;96.40;;;;;;5060610;28;20471;-48
2022/02/07 11:06:09;;;;;;;3.03;0.75;;;8.90;96.30;;;;;;5060380;28;20089;-48
2022/02/07 11:08:47;;;;;;;1.42;0.57;;;8.90;96.20;;;;;;5058820;28;20469;-48
2022/02/07 11:11:40;;;;;;;5.55;0.88;;;8.90;96.20;;;;;;5056685;28;20454;-48
2022/02/07 11:27:31;;;;;;;1.00;0.70;;;8.90;96.30;;;;;;5060424;28;20055;-48
2022/02/07 11:29:58;;;;;;;2.80;1.25;;;8.90;96.30;;;;;;5059393;28;20021;-48
2022/02/07 11:32:39;;;;;;;0.70;0.70;;;8.90;96.40;;;;;;5058462;28;20060;-49
2022/02/07 11:35:17;;;;;;;5.03;1.23;;;8.90;96.30;;;;;;5061198;28;20028;-48
2022/02/07 11:38:09;;;;;;;9.10;1.77;;;8.90;96.40;;;;;;5060125;28;20029;-48
2022/02/07 11:40:44;;;;;;;4.28;0.98;;;8.90;96.30;;;;;;5060870;28;20033;-49
2022/02/07 11:43:15;;;;;;;5.55;2.30;;;8.90;96.50;;;;;;5063199;28;20523;-48
2022/02/07 11:45:53;;;;;;;6.53;1.00;;;8.90;96.30;;;;;;5062484;28;20041;-49
2022/02/07 11:48:28;;;;;;;2.30;0.90;;;8.90;96.30;;;;;;5061717;28;20020;-48
2022/02/07 11:50:57;;;;;;;5.68;1.15;;;8.90;96.30;;;;;;5059224;28;20464;-48
2022/02/07 11:53:31;;;;;;;0.93;0.52;;;8.90;96.40;;;;;;5062424;28;20027;-48
2022/02/07 11:56:16;;;;;;;1.02;0.82;;;8.90;96.20;;;;;;5056806;28;20033;-48
2022/02/07 11:59:11;;;;;;;4.38;0.95;;;8.90;96.30;;;;;;5064920;28;20067;-48
2022/02/07 12:01:58;;;;;;;4.57;1.15;;;8.90;96.30;;;;;;5064315;28;20055;-48
2022/02/07 12:04:26;;;;;;;5.05;0.88;;;8.90;96.20;;;;;;5061026;28;20033;-48
2022/02/07 12:07:10;;;;;;;3.58;1.65;;;8.90;96.30;;;;;;5060832;28;20029;-48
2022/02/07 12:09:37;;;;;;;6.60;1.17;;;8.90;96.10;;;;;;5061592;28;20045;-49
2022/02/07 12:12:05;;;;;;;3.50;1.02;;;8.90;96.10;;;;;;5058730;28;20402;-49
2022/02/07 12:14:34;;;;;;;4.95;1.27;;;8.90;96.20;;;;;;5064081;28;20024;-48
2022/02/07 12:17:00;;;;;;;3.20;1.00;;;8.90;96.20;;;;;;5063029;28;20024;-48
2022/02/07 12:19:40;;;;;;;1.02;0.85;;;8.90;96.10;;;;;;5062168;28;20021;-48
2022/02/07 12:22:18;;;;;;;1.03;0.97;;;8.90;96.10;;;;;;5062970;28;20032;-49
2022/02/07 12:24:58;;;;;;;3.22;1.27;;;8.90;96.10;;;;;;5062923;28;20262;-48
2022/02/07 12:27:29;;;;;;;9.88;1.45;;;8.90;95.40;;;;;;5056230;28;20040;-48
2022/02/07 12:32:40;;;;;;;5.05;1.30;;;8.70;94.60;;;;;;5062542;28;20119;-48
2022/02/07 12:35:06;;;;;;;6.43;1.38;;;8.70;94.90;;;;;;5062844;28;20123;-49
2022/02/07 12:37:37;;;;;;;7.75;1.00;;;8.80;94.70;;;;;;5061563;28;20386;-48
2022/02/07 12:40:05;;;;;;;3.78;1.48;;;8.70;94.80;;;;;;5063737;28;20028;-48
2022/02/07 12:42:34;;;;;;;3.80;1.55;;;8.80;95.00;;;;;;5051229;28;20233;-49
2022/02/07 12:45:02;;;;;;;4.93;1.42;;;8.80;95.00;;;;;;5064318;28;20048;-49
2022/02/07 12:47:27;;;;;;;5.97;1.38;;;8.80;94.90;;;;;;5064738;28;20039;-49
2022/02/07 12:49:56;;;;;;;2.55;0.90;;;8.80;95.10;;;;;;5061549;28;20184;-48
2022/02/07 12:52:36;;;;;;;3.05;1.20;;;8.80;95.00;;;;;;5061094;28;20222;-49
2022/02/07 12:55:04;;;;;;;4.88;1.77;;;8.80;95.20;;;;;;5062771;28;20045;-48
2022/02/07 12:57:40;;;;;;;4.75;1.55;;;8.80;95.20;;;;;;5056354;28;20033;-49
2022/02/07 13:00:10;;;;;;;2.10;1.08;;;8.80;95.20;;;;;;5062880;28;20513;-48
2022/02/07 13:02:35;;;;;;;4.07;1.27;;;8.80;95.20;;;;;;5061153;28;20036;-48
2022/02/07 13:05:02;;;;;;;7.45;0.93;;;8.80;95.40;;;;;;5060750;28;20033;-48
2022/02/07 13:07:34;;;;;;;6.85;1.15;;;8.80;95.30;;;;;;5060743;28;20129;-48
2022/02/07 13:10:02;;;;;;;2.80;0.95;;;8.90;95.30;;;;;;5061798;28;20021;-49
2022/02/07 13:15:01;;;;;;;2.47;1.20;;;8.80;95.40;;;;;;5062965;28;20025;-49
2022/02/07 13:17:28;;;;;;;4.32;1.20;;;8.80;95.50;;;;;;5060643;28;20350;-48
2022/02/07 13:19:54;;;;;;;5.05;1.10;;;8.90;95.40;;;;;;5062279;28;20082;-48
2022/02/07 13:22:23;;;;;;;4.78;1.10;;;8.90;95.60;;;;;;5062206;28;20402;-49
2022/02/07 13:24:49;;;;;;;2.05;1.00;;;8.90;95.60;;;;;;5062431;28;20359;-49
2022/02/07 13:27:17;;;;;;;2.97;1.25;;;8.90;95.60;;;;;;5055413;28;20037;-48
2022/02/07 13:29:49;;;;;;;6.47;1.20;;;8.90;95.60;;;;;;5062642;28;20453;-49
2022/02/07 13:32:17;;;;;;;1.65;0.70;;;8.90;95.60;;;;;;5061934;28;20033;-49
2022/02/07 13:34:44;;;;;;;4.60;1.88;;;8.90;95.70;;;;;;5061263;28;20478;-49
2022/02/07 13:37:26;;;;;;;3.38;1.02;;;8.90;95.70;;;;;;5060995;28;20029;-49
2022/02/07 13:39:59;;;;;;;2.28;0.98;;;9.00;95.60;;;;;;5062858;28;20141;-48
2022/02/07 13:42:37;;;;;;;3.00;0.90;;;9.00;95.50;;;;;;5056310;28;20067;-49
2022/02/07 13:45:10;;;;;;;1.48;0.80;;;9.00;95.50;;;;;;5060657;28;20462;-48
2022/02/07 13:47:45;;;;;;;7.35;1.10;;;9.10;95.50;;;;;;5060220;28;20045;-49
2022/02/07 13:50:13;;;;;;;1.40;0.80;;;9.10;95.40;;;;;;5060989;28;20901;-49
2022/02/07 13:52:41;;;;;;;7.88;1.73;;;9.10;95.50;;;;;;5061959;28;20060;-48
2022/02/07 13:55:35;;;;;;;5.43;1.50;;;9.10;95.50;;;;;;5061271;28;20475;-48
2022/02/07 13:58:09;;;;;;;4.40;0.93;;;9.10;95.60;;;;;;5057280;28;20370;-49
2022/02/07 14:00:48;;;;;;;7.35;1.95;;;9.10;95.60;;;;;;5060310;28;20140;-49
2022/02/07 14:03:19;;;;;;;5.40;0.97;;;9.10;95.70;;;;;;5060357;28;20024;-49
2022/02/07 14:05:47;;;;;;;;;;;9.10;95.70;;;;;;5056010;28;20323;-48
2022/02/07 14:08:13;;;;;;;3.55;1.00;;;9.10;95.70;;;;;;5061548;28;19904;-49
2022/02/07 14:10:41;;;;;;;8.48;1.17;;;9.10;95.80;;;;;;5062562;28;20033;-49
2022/02/07 14:13:09;;;;;;;1.33;0.70;;;9.10;95.70;;;;;;5053977;28;20025;-49
2022/02/07 14:15:35;;;;;;;7.95;1.48;;;9.20;95.70;;;;;;5061776;28;20442;-49
2022/02/07 14:18:05;;;;;;;6.85;1.88;;;9.10;95.80;;;;;;5059582;28;20029;-48
2022/02/07 14:20:33;;;;;;;3.33;1.27;;;9.10;95.80;;;;;;5060539;28;20286;-49
2022/02/07 14:22:58;;;;;;;2.05;1.23;;;9.10;95.80;;;;;;5060039;28;20024;-49
2022/02/07 14:25:28;;;;;;;3.80;1.15;;;9.10;95.80;;;;;;5060578;28;20486;-49
2022/02/07 14:27:54;;;;;;;7.80;0.90;;;9.10;95.80;;;;;;5058156;28;20366;-48
2022/02/07 14:30:20;;;;;;;4.72;1.13;;;9.00;95.70;;;;;;5061039;28;20078;-49
2022/02/07 14:32:45;;;;;;;11.82;1.20;;;9.00;95.70;;;;;;5060738;28;20051;-49
2022/02/07 14:35:11;;;;;;;6.57;1.27;;;9.00;95.80;;;;;;5060132;28;20065;-49
2022/02/07 14:37:37;;;;;;;1.45;1.17;;;9.00;95.70;;;;;;5060387;28;20119;-49
2022/02/07 14:40:02;;;;;;;6.80;1.25;;;9.00;95.80;;;;;;5061372;28;20035;-49
2022/02/07 14:42:28;;;;;;;7.15;1.88;;;9.00;95.80;;;;;;5053912;28;20094;-49
2022/02/07 14:45:00;;;;;;;0.82;0.60;;;9.10;95.70;;;;;;5060862;28;20025;-49
2022/02/07 14:50:25;;;;;;;3.45;1.08;;;9.10;95.80;;;;;;5080041;28;20039;-49
2022/02/07 14:52:52;;;;;;;1.58;1.13;;;9.10;95.80;;;;;;5078129;28;20036;-49
2022/02/07 14:55:20;;;;;;;2.70;1.13;;;9.10;95.80;;;;;;5078513;28;20067;-49
2022/02/07 14:57:45;;;;;;;8.60;2.15;;;9.10;95.80;;;;;;5076035;28;20048;-48
2022/02/07 15:00:16;;;;;;;4.45;1.30;;;9.10;95.70;;;;;;5077584;28;20361;-49
2022/02/07 15:02:43;;;;;;;4.25;1.38;;;9.00;95.70;;;;;;5078145;28;20024;-49
2022/02/07 15:05:09;;;;;;;8.63;1.63;;;9.00;95.70;;;;;;5076845;28;20139;-49
2022/02/07 15:07:35;;;;;;;2.60;1.00;;;9.00;95.70;;;;;;5076211;28;20044;-48
2022/02/07 15:10:01;;;;;;;6.50;2.55;;;9.00;95.70;;;;;;5079276;28;20024;-49
2022/02/07 15:12:28;;;;;;;1.90;1.27;;;9.00;95.80;;;;;;5081018;28;20457;-49
2022/02/07 15:14:54;;;;;;;7.68;1.30;;;9.00;95.80;;;;;;5080189;28;20029;-49
2022/02/07 15:17:22;;;;;;;1.55;1.27;;;9.10;95.90;;;;;;5082418;28;20031;-49
2022/02/07 15:19:47;;;;;;;5.55;1.75;;;9.00;95.80;;;;;;5082160;28;20111;-49
2022/02/07 15:22:13;;;;;;;5.72;1.20;;;9.10;95.90;;;;;;5090468;28;20112;-48
2022/02/07 15:24:39;;;;;;;4.65;1.23;;;9.10;95.70;;;;;;5081217;28;20109;-48
2022/02/07 15:27:09;;;;;;;3.85;1.33;;;9.10;95.80;;;;;;5064721;28;20472;-49
2022/02/07 15:29:36;;;;;;;5.22;1.35;;;9.00;95.70;;;;;;5061852;28;20040;-49
2022/02/07 15:32:23;;;;;;;1.80;0.73;;;9.10;95.80;;;;;;5064581;28;20287;-49
2022/02/07 15:34:55;;;;;;;5.28;1.45;;;9.00;95.70;;;;;;5063162;28;20444;-48
2022/02/07 15:37:21;;;;;;;4.85;1.05;;;9.00;95.70;;;;;;5063595;28;20059;-49
2022/02/07 15:39:47;;;;;;;2.55;1.13;;;9.00;95.80;;;;;;5065465;28;20032;-49
2022/02/07 15:42:13;;;;;;;4.30;1.45;;;9.00;95.80;;;;;;5060498;28;20032;-49